Terminal Aerodrome Forecast
Issued by NWS Detroit/Pontiac, MI

Home | Current Version | Previous Version | Text Only | Print | Product List | Glossary On
Versions: 1 2 3 4 5 6 7 8 9 10 11 12 13 14 15 16 17 18 19 20 21 22
804
FTUS43 KDTX 231740
TAFFNT
TAF
KFNT 231740Z 2318/2418 30012KT P6SM SCT030 SCT250
     FM232100 33007KT P6SM SCT030 BKN150
     FM232300 04007KT P6SM SCT030 BKN150
     FM240300 06009KT P6SM BKN018 OVC040
     FM240700 06010KT 3SM -SHRA BR BKN008 OVC018
     FM241200 10010KT 2SM -DZ BR OVC004=

USA.gov is the U.S. government's official web portal to all federal, state and local government web resources and services.